Time;durP1;ratioP1;P1;durP2;ratioP2;P2;SDS_P1;SDS_P2;PMS_P1;PMS_P2;Temp;Humidity;BMP_temperature;BMP_pressure;BME280_temperature;BME280_humidity;BME280_pressure;Samples;Min_cycle;Max_cycle;Signal;HPM_P1;HPM_P2
2023/09/28 00:02:45;;;;;;;9.73;7.60;;;;;;;;;;742889;189;919134;-59
2023/09/28 00:05:10;;;;;;;12.35;9.23;;;;;;;;;;742909;189;918992;-59
2023/09/28 00:07:36;;;;;;;14.40;10.97;;;;;;;;;;741295;189;918682;-58
2023/09/28 00:10:03;;;;;;;11.00;7.87;;;;;;;;;;735366;189;919846;-59
2023/09/28 00:12:28;;;;;;;14.10;9.60;;;;;;;;;;738869;190;920970;-59
2023/09/28 00:14:54;;;;;;;16.27;10.23;;;;;;;;;;746152;187;919364;-65
2023/09/28 00:17:20;;;;;;;18.60;12.20;;;;;;;;;;740461;188;919009;-60
2023/09/28 00:19:45;;;;;;;16.33;10.17;;;;;;;;;;741823;188;920903;-65
2023/09/28 00:22:11;;;;;;;17.90;11.87;;;;;;;;;;742707;189;918642;-59
2023/09/28 00:24:37;;;;;;;16.47;11.00;;;;;;;;;;742485;189;919273;-59
2023/09/28 00:27:04;;;;;;;15.97;11.83;;;;;;;;;;740143;189;915198;-59
2023/09/28 00:29:29;;;;;;;18.80;11.30;;;;;;;;;;744969;189;854863;-59
2023/09/28 00:31:55;;;;;;;16.30;10.90;;;;;;;;;;739723;189;918845;-58
2023/09/28 00:34:20;;;;;;;15.33;12.03;;;;;;;;;;738023;189;912642;-59
2023/09/28 00:36:46;;;;;;;15.15;10.88;;;;;;;;;;739136;189;921041;-59
2023/09/28 00:39:12;;;;;;;13.57;11.63;;;;;;;;;;742205;188;919616;-65
2023/09/28 00:41:38;;;;;;;19.90;10.97;;;;;;;;;;738911;189;919005;-66
2023/09/28 00:44:04;;;;;;;15.47;10.20;;;;;;;;;;731041;191;917669;-61
2023/09/28 00:46:30;;;;;;;14.47;10.90;;;;;;;;;;742966;189;915606;-67
2023/09/28 00:48:58;;;;;;;13.70;10.27;;;;;;;;;;741906;189;829442;-66
2023/09/28 00:51:26;;;;;;;18.90;11.40;;;;;;;;;;739420;189;918314;-67
2023/09/28 00:53:50;;;;;;;14.30;10.97;;;;;;;;;;739553;189;919718;-59
2023/09/28 00:56:17;;;;;;;18.37;12.37;;;;;;;;;;739683;189;865938;-59
2023/09/28 00:58:41;;;;;;;15.98;11.48;;;;;;;;;;739681;190;918405;-59
2023/09/28 01:01:10;;;;;;;16.30;11.13;;;;;;;;;;738996;190;917899;-59
2023/09/28 01:03:34;;;;;;;14.40;11.80;;;;;;;;;;742372;189;918701;-66
2023/09/28 01:05:58;;;;;;;22.95;10.18;;;;;;;;;;737834;189;918122;-59
2023/09/28 01:08:24;;;;;;;13.25;10.38;;;;;;;;;;738426;190;919083;-66
2023/09/28 01:10:50;;;;;;;13.17;10.37;;;;;;;;;;740571;189;920110;-67
2023/09/28 01:13:20;;;;;;;19.33;9.20;;;;;;;;;;739107;189;919078;-62
2023/09/28 01:15:42;;;;;;;11.37;8.13;;;;;;;;;;738598;189;917622;-68
2023/09/28 01:18:09;;;;;;;13.53;9.30;;;;;;;;;;737641;189;919184;-66
2023/09/28 01:20:37;;;;;;;13.00;9.23;;;;;;;;;;740185;189;893031;-59
2023/09/28 01:23:01;;;;;;;12.70;9.00;;;;;;;;;;738674;189;918757;-59
2023/09/28 01:25:27;;;;;;;9.87;8.20;;;;;;;;;;742557;187;922585;-59
2023/09/28 01:27:54;;;;;;;12.90;8.77;;;;;;;;;;747701;188;918445;-67
2023/09/28 01:30:18;;;;;;;11.17;9.23;;;;;;;;;;738641;188;918955;-67
2023/09/28 01:32:44;;;;;;;12.33;7.40;;;;;;;;;;739898;188;919219;-60
2023/09/28 01:35:11;;;;;;;112.30;11.10;;;;;;;;;;739304;189;815492;-66
2023/09/28 01:37:37;;;;;;;17.20;8.07;;;;;;;;;;740205;189;1020662;-59
2023/09/28 01:40:03;;;;;;;9.40;8.07;;;;;;;;;;734546;189;919534;-61
2023/09/28 01:42:29;;;;;;;10.70;7.70;;;;;;;;;;742735;189;914386;-66
2023/09/28 01:44:55;;;;;;;39.93;10.20;;;;;;;;;;739999;189;919258;-59
2023/09/28 01:47:21;;;;;;;20.23;9.30;;;;;;;;;;734884;189;919185;-66
2023/09/28 01:49:46;;;;;;;12.40;9.50;;;;;;;;;;738461;189;931823;-60
2023/09/28 01:52:12;;;;;;;10.33;8.40;;;;;;;;;;749188;186;918991;-66
2023/09/28 01:54:38;;;;;;;12.70;8.27;;;;;;;;;;737426;189;919031;-66
2023/09/28 01:57:04;;;;;;;11.60;8.40;;;;;;;;;;741984;189;918948;-59
2023/09/28 01:59:30;;;;;;;12.47;9.13;;;;;;;;;;743389;189;909467;-67
2023/09/28 02:01:56;;;;;;;14.87;9.27;;;;;;;;;;738857;189;843345;-59
2023/09/28 02:04:21;;;;;;;11.07;7.83;;;;;;;;;;741350;189;919298;-59
2023/09/28 02:06:48;;;;;;;11.93;9.40;;;;;;;;;;746648;189;816525;-67
2023/09/28 02:09:17;;;;;;;14.50;10.53;;;;;;;;;;739905;189;923459;-59
2023/09/28 02:11:43;;;;;;;10.67;8.97;;;;;;;;;;737450;189;919172;-67
2023/09/28 02:14:05;;;;;;;11.20;8.90;;;;;;;;;;744353;189;919306;-66
2023/09/28 02:16:31;;;;;;;11.60;9.77;;;;;;;;;;738295;189;922559;-67
2023/09/28 02:18:57;;;;;;;13.77;9.73;;;;;;;;;;740160;189;917222;-59
2023/09/28 02:21:22;;;;;;;12.80;9.82;;;;;;;;;;741357;189;915540;-59
2023/09/28 02:23:48;;;;;;;13.33;10.23;;;;;;;;;;741072;189;919627;-66
2023/09/28 02:26:14;;;;;;;18.80;11.00;;;;;;;;;;737875;189;1019898;-68
2023/09/28 02:28:40;;;;;;;15.53;12.23;;;;;;;;;;741822;189;828744;-69
2023/09/28 02:31:06;;;;;;;13.53;10.07;;;;;;;;;;744654;189;919570;-68
2023/09/28 02:33:32;;;;;;;13.87;11.20;;;;;;;;;;738936;189;915718;-59
2023/09/28 02:35:58;;;;;;;17.20;10.77;;;;;;;;;;736444;189;949927;-60
2023/09/28 02:38:23;;;;;;;13.37;10.60;;;;;;;;;;744777;188;918466;-67
2023/09/28 02:40:49;;;;;;;13.90;11.40;;;;;;;;;;741393;189;919855;-59
2023/09/28 02:43:15;;;;;;;16.77;10.30;;;;;;;;;;741841;188;920788;-68
2023/09/28 02:45:42;;;;;;;18.10;11.27;;;;;;;;;;743807;189;927023;-67
2023/09/28 02:48:08;;;;;;;12.17;9.73;;;;;;;;;;748830;187;926179;-67
2023/09/28 02:50:34;;;;;;;15.13;11.20;;;;;;;;;;743153;189;813315;-68
2023/09/28 02:53:00;;;;;;;15.40;10.60;;;;;;;;;;739728;189;924579;-60
2023/09/28 02:55:26;;;;;;;15.70;10.40;;;;;;;;;;745726;189;919332;-59
2023/09/28 02:57:52;;;;;;;14.80;9.53;;;;;;;;;;740891;189;919690;-68
2023/09/28 03:00:24;;;;;;;11.17;10.00;;;;;;;;;;742956;189;918513;-69
2023/09/28 03:02:45;;;;;;;12.17;9.47;;;;;;;;;;742428;189;919048;-67
2023/09/28 03:05:11;;;;;;;12.33;9.73;;;;;;;;;;740773;189;919158;-68
2023/09/28 03:07:39;;;;;;;12.97;9.00;;;;;;;;;;735886;189;919003;-69
2023/09/28 03:10:04;;;;;;;17.15;10.93;;;;;;;;;;736145;189;919249;-60
2023/09/28 03:12:29;;;;;;;15.00;9.67;;;;;;;;;;750162;186;920492;-68
2023/09/28 03:14:55;;;;;;;19.63;10.43;;;;;;;;;;740661;189;919070;-68
2023/09/28 03:17:21;;;;;;;13.60;9.53;;;;;;;;;;737664;189;918874;-67
2023/09/28 03:19:46;;;;;;;12.73;8.90;;;;;;;;;;737887;189;816348;-59
2023/09/28 03:22:12;;;;;;;11.90;8.90;;;;;;;;;;739517;190;921316;-67
2023/09/28 03:24:38;;;;;;;14.43;10.47;;;;;;;;;;733390;189;935264;-68
2023/09/28 03:27:08;;;;;;;13.90;10.30;;;;;;;;;;743045;189;846582;-59
2023/09/28 03:29:30;;;;;;;16.70;10.97;;;;;;;;;;741348;189;919411;-67
2023/09/28 03:31:56;;;;;;;11.47;9.93;;;;;;;;;;739774;189;922206;-60
2023/09/28 03:34:21;;;;;;;14.63;11.07;;;;;;;;;;740137;189;919821;-59
2023/09/28 03:36:47;;;;;;;15.07;10.35;;;;;;;;;;740041;189;922121;-69
2023/09/28 03:39:13;;;;;;;14.73;10.33;;;;;;;;;;741423;189;920661;-67
2023/09/28 03:41:39;;;;;;;14.10;9.43;;;;;;;;;;739406;189;811934;-60
2023/09/28 03:44:07;;;;;;;15.80;10.27;;;;;;;;;;742141;189;919835;-69
2023/09/28 03:46:31;;;;;;;14.80;9.57;;;;;;;;;;737634;189;867853;-59
2023/09/28 03:48:57;;;;;;;14.10;9.37;;;;;;;;;;739002;187;913266;-67
2023/09/28 03:51:23;;;;;;;15.93;9.00;;;;;;;;;;746096;188;915993;-69
2023/09/28 03:53:48;;;;;;;14.77;8.63;;;;;;;;;;734970;188;1021948;-67
2023/09/28 03:56:14;;;;;;;12.27;9.37;;;;;;;;;;741823;188;919282;-60
2023/09/28 03:58:40;;;;;;;10.20;8.40;;;;;;;;;;740552;189;919478;-59
2023/09/28 04:01:07;;;;;;;12.97;9.17;;;;;;;;;;742471;189;916208;-59
2023/09/28 04:03:32;;;;;;;12.77;8.87;;;;;;;;;;739431;189;916109;-59
2023/09/28 04:05:58;;;;;;;16.10;8.95;;;;;;;;;;743491;189;917239;-60
2023/09/28 04:08:24;;;;;;;14.80;9.57;;;;;;;;;;741976;189;1015347;-68
2023/09/28 04:10:50;;;;;;;13.03;9.00;;;;;;;;;;737852;189;942784;-60
2023/09/28 04:13:17;;;;;;;15.37;8.77;;;;;;;;;;735927;189;1123721;-60
2023/09/28 04:15:42;;;;;;;11.20;8.60;;;;;;;;;;741582;189;918396;-59
2023/09/28 04:18:08;;;;;;;16.33;8.70;;;;;;;;;;740239;189;911997;-59
2023/09/28 04:20:35;;;;;;;17.00;9.50;;;;;;;;;;734929;189;917100;-59
2023/09/28 04:23:05;;;;;;;21.83;8.90;;;;;;;;;;739832;189;916393;-60
2023/09/28 04:25:27;;;;;;;9.63;8.10;;;;;;;;;;739959;189;904091;-69
2023/09/28 04:27:51;;;;;;;18.07;10.63;;;;;;;;;;736158;189;918055;-59
2023/09/28 04:30:17;;;;;;;13.57;8.17;;;;;;;;;;744894;189;899535;-67
2023/09/28 04:32:43;;;;;;;9.83;8.77;;;;;;;;;;742406;189;814209;-67
2023/09/28 04:35:10;;;;;;;11.27;8.35;;;;;;;;;;736216;189;915142;-67
2023/09/28 04:37:35;;;;;;;10.77;8.57;;;;;;;;;;736284;189;934592;-59
2023/09/28 04:40:00;;;;;;;9.70;7.63;;;;;;;;;;742154;189;915108;-59
2023/09/28 04:42:26;;;;;;;14.43;7.77;;;;;;;;;;730425;189;1126931;-67
2023/09/28 04:44:52;;;;;;;12.95;8.32;;;;;;;;;;738894;189;918645;-66
2023/09/28 04:47:18;;;;;;;13.10;7.70;;;;;;;;;;741072;189;900869;-60
2023/09/28 04:49:45;;;;;;;13.63;8.30;;;;;;;;;;738689;189;921023;-60
2023/09/28 04:52:10;;;;;;;9.17;7.67;;;;;;;;;;736482;189;917654;-58
2023/09/28 04:54:35;;;;;;;10.00;7.40;;;;;;;;;;740179;189;920377;-59
2023/09/28 04:57:02;;;;;;;9.13;7.18;;;;;;;;;;736613;189;811296;-58
2023/09/28 04:59:27;;;;;;;9.50;8.23;;;;;;;;;;736927;187;916516;-67
2023/09/28 05:01:53;;;;;;;10.27;7.70;;;;;;;;;;742357;188;913850;-58
2023/09/28 05:04:19;;;;;;;12.07;8.80;;;;;;;;;;734469;188;907960;-66
2023/09/28 05:06:46;;;;;;;9.17;7.47;;;;;;;;;;740023;188;900297;-58
2023/09/28 05:09:13;;;;;;;10.73;7.40;;;;;;;;;;740071;189;915310;-58
2023/09/28 05:11:36;;;;;;;10.90;8.40;;;;;;;;;;743306;189;816067;-58
2023/09/28 05:14:02;;;;;;;12.20;8.40;;;;;;;;;;737140;189;920405;-66
2023/09/28 05:16:28;;;;;;;11.48;8.15;;;;;;;;;;738925;189;920004;-66
2023/09/28 05:18:55;;;;;;;11.07;8.30;;;;;;;;;;741326;189;919333;-66
2023/09/28 05:21:20;;;;;;;13.23;8.23;;;;;;;;;;734472;189;905502;-58
2023/09/28 05:23:46;;;;;;;12.70;7.93;;;;;;;;;;738241;189;914556;-61
2023/09/28 05:26:11;;;;;;;11.63;7.93;;;;;;;;;;743442;189;917735;-66
2023/09/28 05:28:37;;;;;;;9.00;7.57;;;;;;;;;;738332;189;918828;-66
2023/09/28 05:31:03;;;;;;;12.80;8.40;;;;;;;;;;733305;190;918505;-66
2023/09/28 05:33:29;;;;;;;13.70;8.60;;;;;;;;;;740370;189;926953;-58
2023/09/28 05:35:55;;;;;;;11.07;8.23;;;;;;;;;;742560;189;919071;-58
2023/09/28 05:38:21;;;;;;;13.50;9.07;;;;;;;;;;735691;189;919582;-58
2023/09/28 05:40:47;;;;;;;15.50;8.40;;;;;;;;;;737671;189;919016;-58
2023/09/28 05:43:12;;;;;;;10.67;8.70;;;;;;;;;;749567;189;713705;-58
2023/09/28 05:45:38;;;;;;;10.63;9.13;;;;;;;;;;735372;189;919114;-58
2023/09/28 05:48:04;;;;;;;13.20;8.30;;;;;;;;;;741448;189;916665;-66
2023/09/28 05:50:30;;;;;;;14.63;9.77;;;;;;;;;;745666;190;918135;-66
2023/09/28 05:52:56;;;;;;;15.20;9.10;;;;;;;;;;736132;189;919256;-58
2023/09/28 05:55:24;;;;;;;10.83;8.27;;;;;;;;;;740925;188;919662;-58
2023/09/28 05:57:48;;;;;;;12.93;9.60;;;;;;;;;;747223;189;919632;-68
2023/09/28 06:00:15;;;;;;;16.20;9.40;;;;;;;;;;737831;189;920560;-58
2023/09/28 06:02:40;;;;;;;14.07;8.70;;;;;;;;;;741122;189;919257;-59
2023/09/28 06:05:06;;;;;;;17.87;10.23;;;;;;;;;;741034;190;919282;-67
2023/09/28 06:07:32;;;;;;;13.10;9.03;;;;;;;;;;741300;190;918186;-68
2023/09/28 06:09:57;;;;;;;10.83;9.07;;;;;;;;;;738225;189;822213;-66
2023/09/28 06:12:23;;;;;;;18.63;10.00;;;;;;;;;;736699;188;917270;-68
2023/09/28 06:14:49;;;;;;;17.13;10.47;;;;;;;;;;741814;188;915535;-58
2023/09/28 06:17:17;;;;;;;11.97;9.20;;;;;;;;;;738934;188;918695;-67
2023/09/28 06:19:41;;;;;;;16.67;9.47;;;;;;;;;;736947;189;919226;-67
2023/09/28 06:22:09;;;;;;;16.90;10.53;;;;;;;;;;746300;189;919302;-67
2023/09/28 06:24:33;;;;;;;15.47;9.50;;;;;;;;;;736643;189;919058;-68
2023/09/28 06:26:59;;;;;;;24.03;11.53;;;;;;;;;;737605;188;923665;-58
2023/09/28 06:29:24;;;;;;;12.23;9.67;;;;;;;;;;736579;189;918411;-66
2023/09/28 06:31:50;;;;;;;11.20;9.47;;;;;;;;;;750430;185;915238;-67
2023/09/28 06:34:16;;;;;;;15.30;9.10;;;;;;;;;;734462;189;920708;-68
2023/09/28 06:36:42;;;;;;;19.33;10.27;;;;;;;;;;737295;189;920703;-58
2023/09/28 06:39:08;;;;;;;41.77;13.97;;;;;;;;;;738020;189;919884;-67
2023/09/28 06:41:34;;;;;;;13.80;9.53;;;;;;;;;;737129;189;918960;-59
2023/09/28 06:44:00;;;;;;;16.07;8.97;;;;;;;;;;740698;189;919250;-69
2023/09/28 06:46:26;;;;;;;12.67;10.00;;;;;;;;;;739719;189;920665;-67
2023/09/28 06:48:52;;;;;;;14.67;9.73;;;;;;;;;;740151;189;921570;-58
2023/09/28 06:51:19;;;;;;;12.97;8.30;;;;;;;;;;738092;189;915027;-68
2023/09/28 06:53:43;;;;;;;16.87;9.70;;;;;;;;;;741694;189;816159;-59
2023/09/28 06:56:10;;;;;;;15.57;8.17;;;;;;;;;;737080;189;914056;-58
2023/09/28 06:58:35;;;;;;;14.03;8.57;;;;;;;;;;738568;189;916086;-58
2023/09/28 07:01:01;;;;;;;14.70;7.67;;;;;;;;;;739287;189;915297;-58
2023/09/28 07:03:27;;;;;;;12.73;7.83;;;;;;;;;;743949;189;918833;-58
2023/09/28 07:05:53;;;;;;;11.73;8.00;;;;;;;;;;741331;189;918500;-58
2023/09/28 07:08:19;;;;;;;10.47;7.77;;;;;;;;;;740042;189;918796;-57
2023/09/28 07:10:45;;;;;;;15.00;7.27;;;;;;;;;;743746;189;918504;-57
2023/09/28 07:13:11;;;;;;;12.77;8.60;;;;;;;;;;738534;189;916115;-58
2023/09/28 07:15:37;;;;;;;15.93;7.50;;;;;;;;;;735089;189;883844;-58
2023/09/28 07:18:03;;;;;;;9.10;7.67;;;;;;;;;;742622;189;921092;-58
2023/09/28 07:20:29;;;;;;;19.30;7.43;;;;;;;;;;742135;189;821831;-59
2023/09/28 07:22:55;;;;;;;11.63;7.60;;;;;;;;;;740750;188;917360;-57
2023/09/28 07:25:21;;;;;;;20.13;8.60;;;;;;;;;;738759;189;917554;-59
2023/09/28 07:27:49;;;;;;;15.67;9.47;;;;;;;;;;747315;188;855197;-58
2023/09/28 07:30:12;;;;;;;11.80;7.20;;;;;;;;;;743240;188;814432;-58
2023/09/28 07:32:38;;;;;;;13.00;7.15;;;;;;;;;;738667;189;1015560;-58
2023/09/28 07:35:04;;;;;;;12.00;7.30;;;;;;;;;;744596;189;912974;-58
2023/09/28 07:37:30;;;;;;;10.00;7.03;;;;;;;;;;736076;189;928296;-57
2023/09/28 07:39:56;;;;;;;8.50;6.20;;;;;;;;;;737112;189;919675;-56
2023/09/28 07:42:23;;;;;;;8.20;6.67;;;;;;;;;;744714;189;905821;-58
2023/09/28 07:44:48;;;;;;;12.30;6.53;;;;;;;;;;739568;189;918556;-58
2023/09/28 07:47:14;;;;;;;12.65;7.22;;;;;;;;;;737454;189;919017;-57
2023/09/28 07:49:40;;;;;;;11.48;7.40;;;;;;;;;;740207;189;915485;-58
2023/09/28 07:52:08;;;;;;;10.20;6.93;;;;;;;;;;738828;189;918428;-56
2023/09/28 07:54:32;;;;;;;10.00;6.10;;;;;;;;;;739521;189;919488;-56
2023/09/28 07:56:57;;;;;;;14.63;6.67;;;;;;;;;;737394;189;866997;-57
2023/09/28 07:59:24;;;;;;;7.73;6.30;;;;;;;;;;741722;189;920784;-57
2023/09/28 08:01:49;;;;;;;11.63;6.63;;;;;;;;;;738469;189;918245;-58
2023/09/28 08:04:16;;;;;;;15.30;6.60;;;;;;;;;;734153;189;899276;-56
2023/09/28 08:06:42;;;;;;;12.00;7.10;;;;;;;;;;740708;189;813069;-57
2023/09/28 08:09:13;;;;;;;9.10;6.30;;;;;;;;;;739074;189;811489;-58
2023/09/28 08:11:33;;;;;;;15.37;6.30;;;;;;;;;;735309;189;921047;-57
2023/09/28 08:13:59;;;;;;;11.20;7.17;;;;;;;;;;740516;189;929799;-57
2023/09/28 08:16:25;;;;;;;12.40;6.20;;;;;;;;;;738118;189;927815;-56
2023/09/28 08:18:50;;;;;;;9.30;6.57;;;;;;;;;;738486;189;918978;-57
2023/09/28 08:21:16;;;;;;;10.60;7.10;;;;;;;;;;738515;189;919099;-57
2023/09/28 08:23:42;;;;;;;14.50;6.70;;;;;;;;;;741640;189;919773;-57
2023/09/28 08:26:08;;;;;;;16.90;6.87;;;;;;;;;;739063;189;922992;-57
2023/09/28 08:28:34;;;;;;;11.23;5.90;;;;;;;;;;737393;189;919481;-57
2023/09/28 08:31:02;;;;;;;11.37;6.30;;;;;;;;;;742055;189;920465;-58
2023/09/28 08:33:29;;;;;;;9.93;6.37;;;;;;;;;;737929;189;921177;-57
2023/09/28 08:35:54;;;;;;;8.20;6.50;;;;;;;;;;739195;188;919084;-57
2023/09/28 08:38:20;;;;;;;9.70;6.97;;;;;;;;;;745852;188;717481;-57
2023/09/28 08:40:46;;;;;;;12.93;5.73;;;;;;;;;;741458;188;932852;-60
2023/09/28 08:43:12;;;;;;;10.80;5.50;;;;;;;;;;742518;188;921940;-57
2023/09/28 08:45:38;;;;;;;7.20;5.00;;;;;;;;;;738835;189;903571;-58
2023/09/28 08:48:06;;;;;;;6.50;5.20;;;;;;;;;;743871;189;919400;-57
2023/09/28 08:50:31;;;;;;;8.40;5.00;;;;;;;;;;736811;188;921020;-58
2023/09/28 08:52:56;;;;;;;9.20;5.90;;;;;;;;;;737721;189;919176;-57
2023/09/28 08:55:23;;;;;;;10.57;4.97;;;;;;;;;;741443;189;822408;-58
2023/09/28 08:57:48;;;;;;;9.90;5.80;;;;;;;;;;738948;189;917953;-57
2023/09/28 09:00:14;;;;;;;9.77;5.47;;;;;;;;;;737563;189;855278;-58
2023/09/28 09:02:40;;;;;;;8.60;4.83;;;;;;;;;;743226;189;711333;-57
2023/09/28 09:05:06;;;;;;;9.23;5.20;;;;;;;;;;738645;189;921121;-58
2023/09/28 09:07:32;;;;;;;11.23;6.40;;;;;;;;;;736401;189;914245;-57
2023/09/28 09:09:58;;;;;;;8.97;5.97;;;;;;;;;;737388;189;909491;-58
2023/09/28 09:12:24;;;;;;;16.93;4.90;;;;;;;;;;739517;189;882326;-58
2023/09/28 09:14:50;;;;;;;8.88;5.28;;;;;;;;;;737475;189;915271;-57
2023/09/28 09:17:15;;;;;;;8.80;5.00;;;;;;;;;;736381;189;915267;-57
2023/09/28 09:19:41;;;;;;;6.83;4.60;;;;;;;;;;743821;189;812240;-58
2023/09/28 09:22:08;;;;;;;9.73;5.00;;;;;;;;;;737639;189;915799;-58
2023/09/28 09:24:33;;;;;;;6.73;5.57;;;;;;;;;;737737;189;916356;-57
2023/09/28 09:26:59;;;;;;;19.40;6.17;;;;;;;;;;742612;189;916293;-59
2023/09/28 09:29:25;;;;;;;6.50;4.57;;;;;;;;;;737577;189;914503;-55
2023/09/28 09:31:51;;;;;;;9.50;4.97;;;;;;;;;;735020;189;906727;-58
2023/09/28 09:34:18;;;;;;;13.10;4.97;;;;;;;;;;740686;189;920847;-58
2023/09/28 09:36:51;;;;;;;7.00;4.90;;;;;;;;;;739252;189;890735;-57
2023/09/28 09:39:30;;;;;;;8.33;5.53;;;;;;;;;;739418;189;817383;-57
2023/09/28 09:41:57;;;;;;;20.93;7.00;;;;;;;;;;734835;189;921984;-58
2023/09/28 09:44:24;;;;;;;6.50;4.03;;;;;;;;;;737436;189;955125;-57
2023/09/28 09:46:48;;;;;;;12.70;6.00;;;;;;;;;;741233;188;875566;-56
2023/09/28 09:49:15;;;;;;;7.53;5.33;;;;;;;;;;741296;187;920772;-57
2023/09/28 09:51:40;;;;;;;10.30;5.00;;;;;;;;;;738860;188;903920;-57
2023/09/28 09:54:08;;;;;;;9.20;4.43;;;;;;;;;;742113;188;943352;-57
2023/09/28 09:56:33;;;;;;;11.33;4.60;;;;;;;;;;737826;189;940599;-63
2023/09/28 09:58:58;;;;;;;8.00;4.75;;;;;;;;;;736087;189;1020328;-63
2023/09/28 10:01:24;;;;;;;6.10;4.70;;;;;;;;;;743854;178;804042;-74
2023/09/28 10:03:51;;;;;;;12.73;6.00;;;;;;;;;;760638;184;817159;-74
2023/09/28 10:06:16;;;;;;;15.23;6.00;;;;;;;;;;739856;185;939706;-75
2023/09/28 10:08:45;;;;;;;6.20;4.67;;;;;;;;;;733545;187;918926;-74
2023/09/28 10:11:10;;;;;;;8.50;5.10;;;;;;;;;;739298;188;816199;-75
2023/09/28 10:13:36;;;;;;;12.13;5.60;;;;;;;;;;735565;188;815961;-74
2023/09/28 10:16:02;;;;;;;11.83;5.00;;;;;;;;;;734490;187;1051464;-74
2023/09/28 10:18:29;;;;;;;8.37;5.20;;;;;;;;;;740214;187;817407;-75
2023/09/28 10:20:54;;;;;;;7.20;4.93;;;;;;;;;;734500;188;758527;-74
2023/09/28 10:23:20;;;;;;;10.50;5.60;;;;;;;;;;742337;187;919239;-65
2023/09/28 10:25:51;;;;;;;11.43;5.20;;;;;;;;;;749812;185;919481;-70
2023/09/28 10:28:17;;;;;;;7.53;5.10;;;;;;;;;;742022;187;917518;-66
2023/09/28 10:30:45;;;;;;;11.73;4.90;;;;;;;;;;737754;187;810502;-64
2023/09/28 10:33:12;;;;;;;10.70;5.00;;;;;;;;;;739788;187;817505;-71
2023/09/28 10:35:35;;;;;;;7.30;5.50;;;;;;;;;;738622;187;886328;-65
2023/09/28 10:38:06;;;;;;;7.80;4.50;;;;;;;;;;739907;187;915028;-70
2023/09/28 10:40:33;;;;;;;9.57;5.87;;;;;;;;;;739192;188;902523;-63
2023/09/28 10:43:04;;;;;;;8.33;5.23;;;;;;;;;;740435;187;919698;-72
2023/09/28 10:45:36;;;;;;;9.70;5.57;;;;;;;;;;742403;187;955244;-64
2023/09/28 10:47:56;;;;;;;8.97;6.33;;;;;;;;;;737788;187;895869;-70
2023/09/28 10:50:22;;;;;;;6.95;4.60;;;;;;;;;;741796;187;898529;-70
2023/09/28 10:52:48;;;;;;;7.70;4.60;;;;;;;;;;738837;187;910559;-64
2023/09/28 10:55:13;;;;;;;8.10;4.73;;;;;;;;;;732929;190;919417;-63
2023/09/28 10:57:39;;;;;;;7.40;5.30;;;;;;;;;;741726;186;916992;-62
2023/09/28 11:00:12;;;;;;;11.90;4.77;;;;;;;;;;743697;186;918643;-64
2023/09/28 11:02:35;;;;;;;6.80;4.80;;;;;;;;;;741934;186;919042;-71
2023/09/28 11:05:00;;;;;;;12.17;7.00;;;;;;;;;;738671;186;816445;-70
2023/09/28 11:07:26;;;;;;;7.37;5.10;;;;;;;;;;744457;186;818615;-71
2023/09/28 11:09:53;;;;;;;7.97;4.50;;;;;;;;;;745775;188;914678;-70
2023/09/28 11:12:18;;;;;;;9.53;4.80;;;;;;;;;;742251;186;919290;-70
2023/09/28 11:14:44;;;;;;;7.30;5.10;;;;;;;;;;737801;188;816982;-71
2023/09/28 11:17:10;;;;;;;10.83;5.20;;;;;;;;;;741404;186;816734;-64
2023/09/28 11:19:36;;;;;;;7.90;4.50;;;;;;;;;;747567;186;760672;-70
2023/09/28 11:22:02;;;;;;;7.20;4.30;;;;;;;;;;741677;188;919108;-64
2023/09/28 11:24:28;;;;;;;5.63;4.70;;;;;;;;;;742821;187;817439;-64
2023/09/28 11:26:56;;;;;;;7.40;4.53;;;;;;;;;;744790;187;918834;-68
2023/09/28 11:29:20;;;;;;;7.30;4.60;;;;;;;;;;738534;187;917969;-62
2023/09/28 11:31:48;;;;;;;9.47;5.20;;;;;;;;;;739936;187;1021593;-63
2023/09/28 11:34:14;;;;;;;9.17;5.53;;;;;;;;;;746847;187;851121;-65
2023/09/28 11:36:40;;;;;;;7.63;5.20;;;;;;;;;;737114;187;920797;-68
2023/09/28 11:39:06;;;;;;;5.77;4.30;;;;;;;;;;738949;187;921115;-63
2023/09/28 11:41:32;;;;;;;7.80;4.80;;;;;;;;;;738598;187;918320;-64
2023/09/28 11:43:58;;;;;;;6.33;4.50;;;;;;;;;;744973;187;920451;-63
2023/09/28 11:46:24;;;;;;;10.13;4.50;;;;;;;;;;739085;187;614448;-70
2023/09/28 11:48:55;;;;;;;10.27;5.27;;;;;;;;;;740708;187;631014;-69
2023/09/28 11:51:21;;;;;;;8.50;4.33;;;;;;;;;;741722;188;640539;-65
2023/09/28 11:53:47;;;;;;;7.90;4.90;;;;;;;;;;742321;187;614251;-65
2023/09/28 11:56:13;;;;;;;11.20;5.05;;;;;;;;;;745878;187;645661;-64
2023/09/28 11:58:39;;;;;;;13.83;4.50;;;;;;;;;;740065;187;1012048;-64
2023/09/28 12:01:05;;;;;;;9.10;4.50;;;;;;;;;;753489;184;631046;-69
2023/09/28 12:03:31;;;;;;;10.10;4.73;;;;;;;;;;744414;187;631087;-70
2023/09/28 12:05:57;;;;;;;10.67;4.70;;;;;;;;;;744788;188;625026;-65
2023/09/28 12:08:24;;;;;;;11.37;4.60;;;;;;;;;;746606;188;611686;-65
2023/09/28 12:10:50;;;;;;;11.00;5.27;;;;;;;;;;744021;186;631324;-69
2023/09/28 12:13:16;;;;;;;9.67;4.93;;;;;;;;;;747666;186;1019337;-64
2023/09/28 12:15:42;;;;;;;7.80;4.70;;;;;;;;;;746018;187;918909;-64
2023/09/28 12:18:08;;;;;;;10.17;5.27;;;;;;;;;;742721;188;918841;-72
2023/09/28 12:20:33;;;;;;;7.18;4.53;;;;;;;;;;742172;188;919486;-71
2023/09/28 12:22:59;;;;;;;4.83;4.13;;;;;;;;;;739285;187;918967;-63
2023/09/28 12:25:27;;;;;;;9.90;5.43;;;;;;;;;;747281;185;920183;-70
2023/09/28 12:27:51;;;;;;;9.00;4.40;;;;;;;;;;737769;186;1181013;-62
2023/09/28 12:30:21;;;;;;;10.63;4.70;;;;;;;;;;735336;187;917661;-68
2023/09/28 12:32:44;;;;;;;8.20;4.57;;;;;;;;;;746826;187;831727;-67
2023/09/28 12:35:08;;;;;;;9.57;4.70;;;;;;;;;;742422;188;641932;-64
2023/09/28 12:37:36;;;;;;;10.53;4.67;;;;;;;;;;742121;188;759421;-66
2023/09/28 12:40:03;;;;;;;8.53;4.60;;;;;;;;;;746354;187;816238;-69
2023/09/28 12:42:26;;;;;;;9.50;4.93;;;;;;;;;;739729;187;919248;-70
2023/09/28 12:44:52;;;;;;;9.40;5.40;;;;;;;;;;736037;189;918369;-69
2023/09/28 12:47:20;;;;;;;12.00;4.20;;;;;;;;;;748168;187;815701;-62
2023/09/28 12:49:45;;;;;;;8.43;5.20;;;;;;;;;;740040;188;917074;-65
2023/09/28 12:52:11;;;;;;;5.93;4.43;;;;;;;;;;741207;187;746505;-69
2023/09/28 12:54:37;;;;;;;13.50;4.77;;;;;;;;;;739711;187;655729;-67
2023/09/28 12:57:04;;;;;;;7.00;4.67;;;;;;;;;;747494;187;626927;-65
2023/09/28 12:59:29;;;;;;;9.10;4.90;;;;;;;;;;738538;187;814853;-65
2023/09/28 13:01:55;;;;;;;11.00;5.10;;;;;;;;;;741277;187;896077;-66
2023/09/28 13:04:21;;;;;;;6.25;4.47;;;;;;;;;;742964;187;917487;-71
2023/09/28 13:06:47;;;;;;;7.83;4.43;;;;;;;;;;740780;187;918919;-69
2023/09/28 13:09:14;;;;;;;11.20;5.70;;;;;;;;;;741012;187;857747;-70
2023/09/28 13:11:38;;;;;;;9.97;4.23;;;;;;;;;;743044;187;818853;-69
2023/09/28 13:14:05;;;;;;;9.77;5.27;;;;;;;;;;741633;187;934158;-64
2023/09/28 13:16:30;;;;;;;10.50;5.10;;;;;;;;;;740189;187;921725;-66
2023/09/28 13:18:59;;;;;;;8.10;4.70;;;;;;;;;;740303;187;912327;-68
2023/09/28 13:21:23;;;;;;;10.57;4.40;;;;;;;;;;747283;187;815087;-66
2023/09/28 13:23:48;;;;;;;8.43;4.23;;;;;;;;;;742022;186;919019;-69
2023/09/28 13:26:14;;;;;;;11.70;5.87;;;;;;;;;;740050;186;918584;-69
2023/09/28 13:28:39;;;;;;;7.50;4.90;;;;;;;;;;744108;188;918993;-66
2023/09/28 13:31:07;;;;;;;7.80;4.80;;;;;;;;;;742725;186;837065;-67
2023/09/28 13:33:34;;;;;;;9.07;5.47;;;;;;;;;;744834;187;810802;-72
2023/09/28 13:35:58;;;;;;;14.07;4.60;;;;;;;;;;743008;187;818712;-70
2023/09/28 13:38:24;;;;;;;9.60;5.10;;;;;;;;;;738264;187;924269;-67
2023/09/28 13:40:50;;;;;;;8.53;4.83;;;;;;;;;;740269;187;892455;-67
2023/09/28 13:43:16;;;;;;;7.30;4.90;;;;;;;;;;735636;187;921770;-70
2023/09/28 13:45:42;;;;;;;13.37;5.00;;;;;;;;;;742157;187;827432;-69
2023/09/28 13:48:08;;;;;;;6.73;4.63;;;;;;;;;;741874;187;919030;-66
2023/09/28 13:50:35;;;;;;;6.32;4.70;;;;;;;;;;736180;189;918927;-66
2023/09/28 13:52:59;;;;;;;9.20;4.97;;;;;;;;;;743343;188;919425;-71
2023/09/28 13:55:25;;;;;;;7.30;4.90;;;;;;;;;;724714;190;918666;-72
2023/09/28 13:57:51;;;;;;;6.03;4.47;;;;;;;;;;734932;187;988319;-73
2023/09/28 14:00:28;;;;;;;7.13;4.63;;;;;;;;;;742294;188;814370;-65
2023/09/28 14:02:48;;;;;;;8.70;5.67;;;;;;;;;;739879;188;917696;-67
2023/09/28 14:05:14;;;;;;;7.80;4.47;;;;;;;;;;739203;187;917891;-69
2023/09/28 14:07:39;;;;;;;10.63;4.83;;;;;;;;;;741164;187;932135;-68
2023/09/28 14:10:07;;;;;;;5.80;4.10;;;;;;;;;;742592;187;991255;-68
2023/09/28 14:12:31;;;;;;;7.73;4.10;;;;;;;;;;738483;186;918795;-68